sensor_id;sensor_type;location;lat;lon;timestamp;temperature;humidity
6664;DHT22;58749;48.022;10.922;2022-10-16T00:01:09;14.60;99.90
6664;DHT22;58749;48.022;10.922;2022-10-16T00:03:38;14.60;99.90
6664;DHT22;58749;48.022;10.922;2022-10-16T00:06:07;14.60;99.90
6664;DHT22;58749;48.022;10.922;2022-10-16T00:08:36;14.60;99.90
6664;DHT22;58749;48.022;10.922;2022-10-16T00:11:06;14.60;99.90
6664;DHT22;58749;48.022;10.922;2022-10-16T00:13:37;14.60;99.90
6664;DHT22;58749;48.022;10.922;2022-10-16T00:16:06;14.60;99.90
6664;DHT22;58749;48.022;10.922;2022-10-16T00:18:34;14.60;99.90
6664;DHT22;58749;48.022;10.922;2022-10-16T00:21:04;14.60;99.90
6664;DHT22;58749;48.022;10.922;2022-10-16T00:23:32;14.60;99.90
6664;DHT22;58749;48.022;10.922;2022-10-16T00:26:03;14.60;99.90
6664;DHT22;58749;48.022;10.922;2022-10-16T00:28:31;14.60;99.90
6664;DHT22;58749;48.022;10.922;2022-10-16T00:31:04;14.60;99.90
6664;DHT22;58749;48.022;10.922;2022-10-16T00:33:32;14.60;99.90
6664;DHT22;58749;48.022;10.922;2022-10-16T00:36:02;14.60;99.90
6664;DHT22;58749;48.022;10.922;2022-10-16T00:38:31;14.60;99.90
6664;DHT22;58749;48.022;10.922;2022-10-16T00:40:59;14.60;99.90
6664;DHT22;58749;48.022;10.922;2022-10-16T00:43:37;14.60;99.90
6664;DHT22;58749;48.022;10.922;2022-10-16T00:46:13;14.60;99.90
6664;DHT22;58749;48.022;10.922;2022-10-16T00:48:47;14.60;99.90
6664;DHT22;58749;48.022;10.922;2022-10-16T00:51:18;14.60;99.90
6664;DHT22;58749;48.022;10.922;2022-10-16T00:53:48;14.60;99.90
6664;DHT22;58749;48.022;10.922;2022-10-16T00:56:16;14.60;99.90
6664;DHT22;58749;48.022;10.922;2022-10-16T00:58:45;14.60;99.90
6664;DHT22;58749;48.022;10.922;2022-10-16T01:01:14;14.60;99.90
6664;DHT22;58749;48.022;10.922;2022-10-16T01:03:43;14.50;99.90
6664;DHT22;58749;48.022;10.922;2022-10-16T01:06:22;14.60;99.90
6664;DHT22;58749;48.022;10.922;2022-10-16T01:09:03;14.50;99.90
6664;DHT22;58749;48.022;10.922;2022-10-16T01:11:39;14.50;99.90
6664;DHT22;58749;48.022;10.922;2022-10-16T01:14:14;14.50;99.90
6664;DHT22;58749;48.022;10.922;2022-10-16T01:16:51;14.50;99.90
6664;DHT22;58749;48.022;10.922;2022-10-16T01:19:31;14.50;99.90
6664;DHT22;58749;48.022;10.922;2022-10-16T01:22:03;14.40;99.90
6664;DHT22;58749;48.022;10.922;2022-10-16T01:24:38;14.50;99.90
6664;DHT22;58749;48.022;10.922;2022-10-16T01:27:12;14.50;99.90
6664;DHT22;58749;48.022;10.922;2022-10-16T01:29:48;14.50;99.90
6664;DHT22;58749;48.022;10.922;2022-10-16T01:32:20;14.40;99.90
6664;DHT22;58749;48.022;10.922;2022-10-16T01:34:52;14.40;99.90
6664;DHT22;58749;48.022;10.922;2022-10-16T01:37:26;14.40;99.90
6664;DHT22;58749;48.022;10.922;2022-10-16T01:39:58;14.40;99.90
6664;DHT22;58749;48.022;10.922;2022-10-16T01:42:32;14.40;99.90
6664;DHT22;58749;48.022;10.922;2022-10-16T01:45:03;14.40;99.90
6664;DHT22;58749;48.022;10.922;2022-10-16T01:47:33;14.40;99.90
6664;DHT22;58749;48.022;10.922;2022-10-16T01:50:04;14.40;99.90
6664;DHT22;58749;48.022;10.922;2022-10-16T01:52:35;14.40;99.90
6664;DHT22;58749;48.022;10.922;2022-10-16T01:55:07;14.40;99.90
6664;DHT22;58749;48.022;10.922;2022-10-16T01:57:40;14.40;99.90
6664;DHT22;58749;48.022;10.922;2022-10-16T02:00:11;14.40;99.90
6664;DHT22;58749;48.022;10.922;2022-10-16T02:02:40;14.40;99.90
6664;DHT22;58749;48.022;10.922;2022-10-16T02:05:15;14.40;99.90
6664;DHT22;58749;48.022;10.922;2022-10-16T02:07:44;14.40;99.90
6664;DHT22;58749;48.022;10.922;2022-10-16T02:10:12;14.40;99.90
6664;DHT22;58749;48.022;10.922;2022-10-16T02:12:44;14.40;99.90
6664;DHT22;58749;48.022;10.922;2022-10-16T02:15:14;14.40;99.90
6664;DHT22;58749;48.022;10.922;2022-10-16T02:17:42;14.30;99.90
6664;DHT22;58749;48.022;10.922;2022-10-16T02:20:10;14.30;99.90
6664;DHT22;58749;48.022;10.922;2022-10-16T02:22:41;14.30;99.90
6664;DHT22;58749;48.022;10.922;2022-10-16T02:25:15;14.30;99.90
6664;DHT22;58749;48.022;10.922;2022-10-16T02:27:53;14.30;99.90
6664;DHT22;58749;48.022;10.922;2022-10-16T02:30:26;14.30;99.90
6664;DHT22;58749;48.022;10.922;2022-10-16T02:32:55;14.30;99.90
6664;DHT22;58749;48.022;10.922;2022-10-16T02:35:24;14.30;99.90
6664;DHT22;58749;48.022;10.922;2022-10-16T02:37:54;14.30;99.90
6664;DHT22;58749;48.022;10.922;2022-10-16T02:40:24;14.30;99.90
6664;DHT22;58749;48.022;10.922;2022-10-16T02:42:54;14.30;99.90
6664;DHT22;58749;48.022;10.922;2022-10-16T02:45:23;14.20;99.90
6664;DHT22;58749;48.022;10.922;2022-10-16T02:47:51;14.30;99.90
6664;DHT22;58749;48.022;10.922;2022-10-16T02:50:19;14.30;99.90
6664;DHT22;58749;48.022;10.922;2022-10-16T02:52:48;14.20;99.90
6664;DHT22;58749;48.022;10.922;2022-10-16T02:55:16;14.20;99.90
6664;DHT22;58749;48.022;10.922;2022-10-16T02:57:44;14.20;99.90
6664;DHT22;58749;48.022;10.922;2022-10-16T03:00:16;14.20;99.90
6664;DHT22;58749;48.022;10.922;2022-10-16T03:02:44;14.10;99.90
6664;DHT22;58749;48.022;10.922;2022-10-16T03:05:13;14.20;99.90
6664;DHT22;58749;48.022;10.922;2022-10-16T03:07:42;14.20;99.90
6664;DHT22;58749;48.022;10.922;2022-10-16T03:10:10;14.20;99.90
6664;DHT22;58749;48.022;10.922;2022-10-16T03:12:38;14.10;99.90
6664;DHT22;58749;48.022;10.922;2022-10-16T03:15:07;14.20;99.90
6664;DHT22;58749;48.022;10.922;2022-10-16T03:17:36;14.20;99.90
6664;DHT22;58749;48.022;10.922;2022-10-16T03:20:05;14.20;99.90
6664;DHT22;58749;48.022;10.922;2022-10-16T03:22:33;14.20;99.90
6664;DHT22;58749;48.022;10.922;2022-10-16T03:25:21;14.30;99.90
6664;DHT22;58749;48.022;10.922;2022-10-16T03:27:49;14.30;99.90
6664;DHT22;58749;48.022;10.922;2022-10-16T03:30:17;14.20;99.90
6664;DHT22;58749;48.022;10.922;2022-10-16T03:32:47;14.20;99.90
6664;DHT22;58749;48.022;10.922;2022-10-16T03:35:15;14.20;99.90
6664;DHT22;58749;48.022;10.922;2022-10-16T03:37:43;14.20;99.90
6664;DHT22;58749;48.022;10.922;2022-10-16T03:40:11;14.20;99.90
6664;DHT22;58749;48.022;10.922;2022-10-16T03:42:39;14.20;99.90
6664;DHT22;58749;48.022;10.922;2022-10-16T03:45:08;14.30;99.90
6664;DHT22;58749;48.022;10.922;2022-10-16T03:47:36;14.30;99.90
6664;DHT22;58749;48.022;10.922;2022-10-16T03:50:07;14.30;99.90
6664;DHT22;58749;48.022;10.922;2022-10-16T03:52:35;14.30;99.90
6664;DHT22;58749;48.022;10.922;2022-10-16T03:55:03;14.30;99.90
6664;DHT22;58749;48.022;10.922;2022-10-16T03:57:31;14.30;99.90
6664;DHT22;58749;48.022;10.922;2022-10-16T04:00:00;14.30;99.90
6664;DHT22;58749;48.022;10.922;2022-10-16T04:02:28;14.40;99.90
6664;DHT22;58749;48.022;10.922;2022-10-16T04:04:56;14.30;99.90
6664;DHT22;58749;48.022;10.922;2022-10-16T04:07:25;14.30;99.90
6664;DHT22;58749;48.022;10.922;2022-10-16T04:09:54;14.30;99.90
6664;DHT22;58749;48.022;10.922;2022-10-16T04:12:22;14.40;99.90
6664;DHT22;58749;48.022;10.922;2022-10-16T04:14:50;14.30;99.90
6664;DHT22;58749;48.022;10.922;2022-10-16T04:17:18;14.40;99.90
6664;DHT22;58749;48.022;10.922;2022-10-16T04:19:46;14.40;99.90
6664;DHT22;58749;48.022;10.922;2022-10-16T04:22:14;14.40;99.90
6664;DHT22;58749;48.022;10.922;2022-10-16T04:24:44;14.40;99.90
6664;DHT22;58749;48.022;10.922;2022-10-16T04:27:12;14.40;99.90
6664;DHT22;58749;48.022;10.922;2022-10-16T04:29:40;14.40;99.90
6664;DHT22;58749;48.022;10.922;2022-10-16T04:32:08;14.40;99.90
6664;DHT22;58749;48.022;10.922;2022-10-16T04:34:38;14.40;99.90
6664;DHT22;58749;48.022;10.922;2022-10-16T04:37:06;14.40;99.90
6664;DHT22;58749;48.022;10.922;2022-10-16T04:39:35;14.40;99.90
6664;DHT22;58749;48.022;10.922;2022-10-16T04:42:04;14.40;99.90
6664;DHT22;58749;48.022;10.922;2022-10-16T04:44:32;14.40;99.90
6664;DHT22;58749;48.022;10.922;2022-10-16T04:47:00;14.40;99.90
6664;DHT22;58749;48.022;10.922;2022-10-16T04:49:28;14.40;99.90
6664;DHT22;58749;48.022;10.922;2022-10-16T04:51:56;14.30;99.90
6664;DHT22;58749;48.022;10.922;2022-10-16T04:54:24;14.30;99.90
6664;DHT22;58749;48.022;10.922;2022-10-16T04:56:52;14.30;99.90
6664;DHT22;58749;48.022;10.922;2022-10-16T04:59:42;14.40;99.90
6664;DHT22;58749;48.022;10.922;2022-10-16T05:02:10;14.30;99.90
6664;DHT22;58749;48.022;10.922;2022-10-16T05:04:38;14.40;99.90
6664;DHT22;58749;48.022;10.922;2022-10-16T05:07:06;14.40;99.90
6664;DHT22;58749;48.022;10.922;2022-10-16T05:09:34;14.40;99.90
6664;DHT22;58749;48.022;10.922;2022-10-16T05:12:03;14.40;99.90
6664;DHT22;58749;48.022;10.922;2022-10-16T05:14:31;14.40;99.90
6664;DHT22;58749;48.022;10.922;2022-10-16T05:17:00;14.40;99.90
6664;DHT22;58749;48.022;10.922;2022-10-16T05:19:28;14.40;99.90
6664;DHT22;58749;48.022;10.922;2022-10-16T05:21:56;14.30;99.90
6664;DHT22;58749;48.022;10.922;2022-10-16T05:24:25;14.30;99.90
6664;DHT22;58749;48.022;10.922;2022-10-16T05:26:53;14.30;99.90
6664;DHT22;58749;48.022;10.922;2022-10-16T05:29:22;14.30;99.90
6664;DHT22;58749;48.022;10.922;2022-10-16T05:31:51;14.30;99.90
6664;DHT22;58749;48.022;10.922;2022-10-16T05:34:21;14.30;99.90
6664;DHT22;58749;48.022;10.922;2022-10-16T05:36:49;14.30;99.90
6664;DHT22;58749;48.022;10.922;2022-10-16T05:39:18;14.30;99.90
6664;DHT22;58749;48.022;10.922;2022-10-16T05:41:46;14.30;99.90
6664;DHT22;58749;48.022;10.922;2022-10-16T05:44:14;14.30;99.90
6664;DHT22;58749;48.022;10.922;2022-10-16T05:46:42;14.30;99.90
6664;DHT22;58749;48.022;10.922;2022-10-16T05:49:10;14.30;99.90
6664;DHT22;58749;48.022;10.922;2022-10-16T05:51:39;14.30;99.90
6664;DHT22;58749;48.022;10.922;2022-10-16T05:54:08;14.30;99.90
6664;DHT22;58749;48.022;10.922;2022-10-16T05:56:36;14.30;99.90
6664;DHT22;58749;48.022;10.922;2022-10-16T05:59:04;14.30;99.90
6664;DHT22;58749;48.022;10.922;2022-10-16T06:01:33;14.40;99.90
6664;DHT22;58749;48.022;10.922;2022-10-16T06:04:01;14.40;99.90
6664;DHT22;58749;48.022;10.922;2022-10-16T06:06:30;14.30;99.90
6664;DHT22;58749;48.022;10.922;2022-10-16T06:08:59;14.30;99.90
6664;DHT22;58749;48.022;10.922;2022-10-16T06:11:28;14.30;99.90
6664;DHT22;58749;48.022;10.922;2022-10-16T06:13:58;14.30;99.90
6664;DHT22;58749;48.022;10.922;2022-10-16T06:16:28;14.30;99.90
6664;DHT22;58749;48.022;10.922;2022-10-16T06:18:56;14.30;99.90
6664;DHT22;58749;48.022;10.922;2022-10-16T06:21:27;14.30;99.90
6664;DHT22;58749;48.022;10.922;2022-10-16T06:23:56;14.30;99.90
6664;DHT22;58749;48.022;10.922;2022-10-16T06:26:27;14.40;99.90
6664;DHT22;58749;48.022;10.922;2022-10-16T06:28:58;14.30;99.90
6664;DHT22;58749;48.022;10.922;2022-10-16T06:31:27;14.30;99.90
6664;DHT22;58749;48.022;10.922;2022-10-16T06:33:57;14.30;99.90
6664;DHT22;58749;48.022;10.922;2022-10-16T06:36:26;14.30;99.90
6664;DHT22;58749;48.022;10.922;2022-10-16T06:38:54;14.30;99.90
6664;DHT22;58749;48.022;10.922;2022-10-16T06:41:22;14.30;99.90
6664;DHT22;58749;48.022;10.922;2022-10-16T06:43:52;14.30;99.90
6664;DHT22;58749;48.022;10.922;2022-10-16T06:46:22;14.40;99.90
6664;DHT22;58749;48.022;10.922;2022-10-16T06:48:51;14.30;99.90
6664;DHT22;58749;48.022;10.922;2022-10-16T06:51:20;14.40;99.90
6664;DHT22;58749;48.022;10.922;2022-10-16T06:53:51;14.40;99.90
6664;DHT22;58749;48.022;10.922;2022-10-16T06:56:30;14.40;99.90
6664;DHT22;58749;48.022;10.922;2022-10-16T06:59:00;14.40;99.90
6664;DHT22;58749;48.022;10.922;2022-10-16T07:01:29;14.40;99.90
6664;DHT22;58749;48.022;10.922;2022-10-16T07:04:15;14.40;99.90
6664;DHT22;58749;48.022;10.922;2022-10-16T07:06:45;14.40;99.90
6664;DHT22;58749;48.022;10.922;2022-10-16T07:09:13;14.40;99.90
6664;DHT22;58749;48.022;10.922;2022-10-16T07:11:41;14.40;99.90
6664;DHT22;58749;48.022;10.922;2022-10-16T07:14:16;14.40;99.90
6664;DHT22;58749;48.022;10.922;2022-10-16T07:16:44;14.40;99.90
6664;DHT22;58749;48.022;10.922;2022-10-16T07:19:13;14.50;99.90
6664;DHT22;58749;48.022;10.922;2022-10-16T07:21:42;14.50;99.90
6664;DHT22;58749;48.022;10.922;2022-10-16T07:24:12;14.60;99.90
6664;DHT22;58749;48.022;10.922;2022-10-16T07:26:41;14.60;99.90
6664;DHT22;58749;48.022;10.922;2022-10-16T07:29:14;14.60;99.90
6664;DHT22;58749;48.022;10.922;2022-10-16T07:31:43;14.70;99.90
6664;DHT22;58749;48.022;10.922;2022-10-16T07:34:12;14.70;99.90
6664;DHT22;58749;48.022;10.922;2022-10-16T07:36:40;14.80;99.90
6664;DHT22;58749;48.022;10.922;2022-10-16T07:39:09;14.90;99.90
6664;DHT22;58749;48.022;10.922;2022-10-16T07:41:37;14.90;99.90
6664;DHT22;58749;48.022;10.922;2022-10-16T07:44:05;14.90;99.90
6664;DHT22;58749;48.022;10.922;2022-10-16T07:46:35;14.90;99.90
6664;DHT22;58749;48.022;10.922;2022-10-16T07:49:03;15.00;99.90
6664;DHT22;58749;48.022;10.922;2022-10-16T07:51:31;15.00;99.90
6664;DHT22;58749;48.022;10.922;2022-10-16T07:53:59;15.00;99.90
6664;DHT22;58749;48.022;10.922;2022-10-16T07:56:30;15.00;99.90
6664;DHT22;58749;48.022;10.922;2022-10-16T07:58:58;15.00;99.90
6664;DHT22;58749;48.022;10.922;2022-10-16T08:01:26;15.00;99.90
6664;DHT22;58749;48.022;10.922;2022-10-16T08:03:56;15.00;99.90
6664;DHT22;58749;48.022;10.922;2022-10-16T08:06:24;15.00;99.90
6664;DHT22;58749;48.022;10.922;2022-10-16T08:08:54;15.00;99.90
6664;DHT22;58749;48.022;10.922;2022-10-16T08:11:22;15.00;99.90
6664;DHT22;58749;48.022;10.922;2022-10-16T08:13:51;15.10;99.90
6664;DHT22;58749;48.022;10.922;2022-10-16T08:16:19;15.10;99.90
6664;DHT22;58749;48.022;10.922;2022-10-16T08:18:47;15.20;99.90
6664;DHT22;58749;48.022;10.922;2022-10-16T08:21:18;15.30;99.90
6664;DHT22;58749;48.022;10.922;2022-10-16T08:23:47;15.40;99.90
6664;DHT22;58749;48.022;10.922;2022-10-16T08:26:24;15.50;99.90
6664;DHT22;58749;48.022;10.922;2022-10-16T08:28:53;15.60;99.90
6664;DHT22;58749;48.022;10.922;2022-10-16T08:31:21;15.80;99.90
6664;DHT22;58749;48.022;10.922;2022-10-16T08:33:49;15.90;99.90
6664;DHT22;58749;48.022;10.922;2022-10-16T08:36:20;16.10;99.90
6664;DHT22;58749;48.022;10.922;2022-10-16T08:38:48;16.20;99.90
6664;DHT22;58749;48.022;10.922;2022-10-16T08:44:44;16.50;99.90
6664;DHT22;58749;48.022;10.922;2022-10-16T08:47:18;16.70;99.90
6664;DHT22;58749;48.022;10.922;2022-10-16T08:49:56;16.90;99.90
6664;DHT22;58749;48.022;10.922;2022-10-16T08:52:29;17.00;99.90
6664;DHT22;58749;48.022;10.922;2022-10-16T08:54:58;17.20;99.90
6664;DHT22;58749;48.022;10.922;2022-10-16T08:57:26;17.30;99.90
6664;DHT22;58749;48.022;10.922;2022-10-16T08:59:59;17.30;99.90
6664;DHT22;58749;48.022;10.922;2022-10-16T09:02:32;17.40;99.90
6664;DHT22;58749;48.022;10.922;2022-10-16T09:05:17;17.40;99.90
6664;DHT22;58749;48.022;10.922;2022-10-16T09:07:56;17.50;99.90
6664;DHT22;58749;48.022;10.922;2022-10-16T09:10:43;17.60;99.90
6664;DHT22;58749;48.022;10.922;2022-10-16T09:13:20;17.70;99.90
6664;DHT22;58749;48.022;10.922;2022-10-16T09:15:55;17.80;99.90
6664;DHT22;58749;48.022;10.922;2022-10-16T09:18:29;17.90;99.90
6664;DHT22;58749;48.022;10.922;2022-10-16T09:21:07;18.00;99.90
6664;DHT22;58749;48.022;10.922;2022-10-16T09:23:38;18.10;99.90
6664;DHT22;58749;48.022;10.922;2022-10-16T09:28:38;18.30;99.90
6664;DHT22;58749;48.022;10.922;2022-10-16T09:31:13;18.40;99.90
6664;DHT22;58749;48.022;10.922;2022-10-16T09:33:52;18.50;99.90
6664;DHT22;58749;48.022;10.922;2022-10-16T09:36:22;18.60;99.90
6664;DHT22;58749;48.022;10.922;2022-10-16T09:39:01;18.60;99.90
6664;DHT22;58749;48.022;10.922;2022-10-16T09:41:30;18.80;99.90
6664;DHT22;58749;48.022;10.922;2022-10-16T09:43:59;18.90;99.90
6664;DHT22;58749;48.022;10.922;2022-10-16T09:46:30;19.10;99.90
6664;DHT22;58749;48.022;10.922;2022-10-16T09:48:59;19.20;99.90
6664;DHT22;58749;48.022;10.922;2022-10-16T09:51:31;19.50;99.90
6664;DHT22;58749;48.022;10.922;2022-10-16T09:54:02;19.70;99.90
6664;DHT22;58749;48.022;10.922;2022-10-16T09:56:40;19.80;99.90
6664;DHT22;58749;48.022;10.922;2022-10-16T09:59:11;19.90;99.90
6664;DHT22;58749;48.022;10.922;2022-10-16T10:01:41;19.90;99.90
6664;DHT22;58749;48.022;10.922;2022-10-16T10:04:10;19.90;99.90
6664;DHT22;58749;48.022;10.922;2022-10-16T10:06:43;19.80;99.90
6664;DHT22;58749;48.022;10.922;2022-10-16T10:09:21;19.80;99.90
6664;DHT22;58749;48.022;10.922;2022-10-16T10:11:52;19.90;99.90
6664;DHT22;58749;48.022;10.922;2022-10-16T10:14:26;19.90;99.90
6664;DHT22;58749;48.022;10.922;2022-10-16T10:17:10;19.90;99.90
6664;DHT22;58749;48.022;10.922;2022-10-16T10:19:40;19.90;99.90
6664;DHT22;58749;48.022;10.922;2022-10-16T10:22:24;19.80;99.90
6664;DHT22;58749;48.022;10.922;2022-10-16T10:28:09;19.60;99.90
6664;DHT22;58749;48.022;10.922;2022-10-16T10:30:46;19.50;99.90
6664;DHT22;58749;48.022;10.922;2022-10-16T10:33:24;19.50;99.90
6664;DHT22;58749;48.022;10.922;2022-10-16T10:36:04;19.40;99.90
6664;DHT22;58749;48.022;10.922;2022-10-16T10:38:41;19.20;99.90
6664;DHT22;58749;48.022;10.922;2022-10-16T10:41:25;19.20;99.90
6664;DHT22;58749;48.022;10.922;2022-10-16T10:44:03;19.20;99.90
6664;DHT22;58749;48.022;10.922;2022-10-16T10:46:38;19.30;99.90
6664;DHT22;58749;48.022;10.922;2022-10-16T10:52:13;19.50;99.90
6664;DHT22;58749;48.022;10.922;2022-10-16T10:54:51;19.60;99.90
6664;DHT22;58749;48.022;10.922;2022-10-16T10:57:28;19.80;99.90
6664;DHT22;58749;48.022;10.922;2022-10-16T11:00:14;19.90;99.90
6664;DHT22;58749;48.022;10.922;2022-10-16T11:02:48;20.00;99.90
6664;DHT22;58749;48.022;10.922;2022-10-16T11:05:40;20.10;99.90
6664;DHT22;58749;48.022;10.922;2022-10-16T11:08:14;20.30;99.90
6664;DHT22;58749;48.022;10.922;2022-10-16T11:10:51;20.40;99.90
6664;DHT22;58749;48.022;10.922;2022-10-16T11:13:29;20.40;99.90
6664;DHT22;58749;48.022;10.922;2022-10-16T11:16:00;20.50;99.90
6664;DHT22;58749;48.022;10.922;2022-10-16T11:18:33;20.50;99.90
6664;DHT22;58749;48.022;10.922;2022-10-16T11:21:09;20.60;99.90
6664;DHT22;58749;48.022;10.922;2022-10-16T11:23:42;20.50;99.90
6664;DHT22;58749;48.022;10.922;2022-10-16T11:26:16;20.50;99.90
6664;DHT22;58749;48.022;10.922;2022-10-16T11:28:49;20.50;99.90
6664;DHT22;58749;48.022;10.922;2022-10-16T11:31:24;20.50;99.90
6664;DHT22;58749;48.022;10.922;2022-10-16T11:34:01;20.50;99.90
6664;DHT22;58749;48.022;10.922;2022-10-16T11:36:35;20.50;99.90
6664;DHT22;58749;48.022;10.922;2022-10-16T11:39:16;20.50;99.90
6664;DHT22;58749;48.022;10.922;2022-10-16T11:41:48;20.50;99.90
6664;DHT22;58749;48.022;10.922;2022-10-16T11:44:32;20.50;99.90
6664;DHT22;58749;48.022;10.922;2022-10-16T11:47:09;20.50;99.90
6664;DHT22;58749;48.022;10.922;2022-10-16T11:50:02;20.60;99.90
6664;DHT22;58749;48.022;10.922;2022-10-16T11:52:36;20.70;99.90
6664;DHT22;58749;48.022;10.922;2022-10-16T11:55:15;20.70;99.90
6664;DHT22;58749;48.022;10.922;2022-10-16T11:57:47;20.80;99.90
6664;DHT22;58749;48.022;10.922;2022-10-16T12:00:22;20.80;99.90
6664;DHT22;58749;48.022;10.922;2022-10-16T12:03:00;20.80;99.90
6664;DHT22;58749;48.022;10.922;2022-10-16T12:05:39;20.80;99.90
6664;DHT22;58749;48.022;10.922;2022-10-16T12:08:15;20.80;99.90
6664;DHT22;58749;48.022;10.922;2022-10-16T12:10:45;20.90;99.90
6664;DHT22;58749;48.022;10.922;2022-10-16T12:13:35;20.90;99.90
6664;DHT22;58749;48.022;10.922;2022-10-16T12:16:07;20.90;99.90
6664;DHT22;58749;48.022;10.922;2022-10-16T12:18:47;20.90;99.90
6664;DHT22;58749;48.022;10.922;2022-10-16T12:21:17;20.90;99.90
6664;DHT22;58749;48.022;10.922;2022-10-16T12:23:50;21.00;99.90
6664;DHT22;58749;48.022;10.922;2022-10-16T12:26:26;21.00;99.90
6664;DHT22;58749;48.022;10.922;2022-10-16T12:28:55;21.10;99.90
6664;DHT22;58749;48.022;10.922;2022-10-16T12:31:36;21.10;99.90
6664;DHT22;58749;48.022;10.922;2022-10-16T12:34:28;21.10;99.90
6664;DHT22;58749;48.022;10.922;2022-10-16T12:37:09;21.20;99.90
6664;DHT22;58749;48.022;10.922;2022-10-16T12:39:37;21.20;99.90
6664;DHT22;58749;48.022;10.922;2022-10-16T12:42:20;21.20;99.90
6664;DHT22;58749;48.022;10.922;2022-10-16T12:44:49;21.20;99.90
6664;DHT22;58749;48.022;10.922;2022-10-16T12:47:23;21.20;99.30
6664;DHT22;58749;48.022;10.922;2022-10-16T12:49:53;21.30;98.60
6664;DHT22;58749;48.022;10.922;2022-10-16T12:52:34;21.30;99.90
6664;DHT22;58749;48.022;10.922;2022-10-16T12:55:04;21.30;99.90
6664;DHT22;58749;48.022;10.922;2022-10-16T12:57:44;21.20;99.90
6664;DHT22;58749;48.022;10.922;2022-10-16T13:00:22;21.30;99.90
6664;DHT22;58749;48.022;10.922;2022-10-16T13:03:18;21.30;99.90
6664;DHT22;58749;48.022;10.922;2022-10-16T13:05:59;21.30;99.90
6664;DHT22;58749;48.022;10.922;2022-10-16T13:08:42;21.30;99.40
6664;DHT22;58749;48.022;10.922;2022-10-16T13:11:19;21.40;99.90
6664;DHT22;58749;48.022;10.922;2022-10-16T13:14:22;21.30;97.90
6664;DHT22;58749;48.022;10.922;2022-10-16T13:16:59;21.30;98.90
6664;DHT22;58749;48.022;10.922;2022-10-16T13:19:33;21.30;97.80
6664;DHT22;58749;48.022;10.922;2022-10-16T13:22:10;21.30;99.10
6664;DHT22;58749;48.022;10.922;2022-10-16T13:24:48;21.40;99.90
6664;DHT22;58749;48.022;10.922;2022-10-16T13:27:29;21.50;99.90
6664;DHT22;58749;48.022;10.922;2022-10-16T13:30:11;21.50;99.90
6664;DHT22;58749;48.022;10.922;2022-10-16T13:32:40;21.50;99.90
6664;DHT22;58749;48.022;10.922;2022-10-16T13:35:23;21.50;99.90
6664;DHT22;58749;48.022;10.922;2022-10-16T13:38:03;21.60;98.10
6664;DHT22;58749;48.022;10.922;2022-10-16T13:40:31;21.60;97.50
6664;DHT22;58749;48.022;10.922;2022-10-16T13:43:01;21.60;99.00
6664;DHT22;58749;48.022;10.922;2022-10-16T13:45:29;21.60;99.30
6664;DHT22;58749;48.022;10.922;2022-10-16T13:48:04;21.60;99.30
6664;DHT22;58749;48.022;10.922;2022-10-16T13:50:34;21.50;97.90
6664;DHT22;58749;48.022;10.922;2022-10-16T13:53:06;21.50;97.80
6664;DHT22;58749;48.022;10.922;2022-10-16T13:55:34;21.40;97.00
6664;DHT22;58749;48.022;10.922;2022-10-16T13:58:07;21.40;96.50
6664;DHT22;58749;48.022;10.922;2022-10-16T14:00:35;21.30;96.70
6664;DHT22;58749;48.022;10.922;2022-10-16T14:03:07;21.20;96.80
6664;DHT22;58749;48.022;10.922;2022-10-16T14:05:43;21.20;96.10
6664;DHT22;58749;48.022;10.922;2022-10-16T14:08:12;21.20;95.90
6664;DHT22;58749;48.022;10.922;2022-10-16T14:10:41;21.20;96.80
6664;DHT22;58749;48.022;10.922;2022-10-16T14:13:17;21.20;96.30
6664;DHT22;58749;48.022;10.922;2022-10-16T14:15:47;21.20;95.20
6664;DHT22;58749;48.022;10.922;2022-10-16T14:18:19;21.20;95.20
6664;DHT22;58749;48.022;10.922;2022-10-16T14:20:49;21.20;95.50
6664;DHT22;58749;48.022;10.922;2022-10-16T14:23:21;21.20;95.50
6664;DHT22;58749;48.022;10.922;2022-10-16T14:25:49;21.20;95.70
6664;DHT22;58749;48.022;10.922;2022-10-16T14:28:19;21.10;96.00
6664;DHT22;58749;48.022;10.922;2022-10-16T14:30:52;21.10;96.80
6664;DHT22;58749;48.022;10.922;2022-10-16T14:33:22;21.10;97.10
6664;DHT22;58749;48.022;10.922;2022-10-16T14:36:03;21.10;97.20
6664;DHT22;58749;48.022;10.922;2022-10-16T14:38:33;21.00;96.00
6664;DHT22;58749;48.022;10.922;2022-10-16T14:41:01;21.00;95.30
6664;DHT22;58749;48.022;10.922;2022-10-16T14:43:33;21.00;95.00
6664;DHT22;58749;48.022;10.922;2022-10-16T14:46:05;21.00;94.60
6664;DHT22;58749;48.022;10.922;2022-10-16T14:48:34;21.00;94.50
6664;DHT22;58749;48.022;10.922;2022-10-16T14:51:07;21.00;95.30
6664;DHT22;58749;48.022;10.922;2022-10-16T14:53:36;21.00;95.50
6664;DHT22;58749;48.022;10.922;2022-10-16T14:56:06;21.00;95.80
6664;DHT22;58749;48.022;10.922;2022-10-16T14:58:35;21.00;96.30
6664;DHT22;58749;48.022;10.922;2022-10-16T15:01:03;20.90;96.10
6664;DHT22;58749;48.022;10.922;2022-10-16T15:03:33;20.90;94.30
6664;DHT22;58749;48.022;10.922;2022-10-16T15:06:03;20.90;93.70
6664;DHT22;58749;48.022;10.922;2022-10-16T15:08:31;20.90;92.80
6664;DHT22;58749;48.022;10.922;2022-10-16T15:10:59;20.90;92.70
6664;DHT22;58749;48.022;10.922;2022-10-16T15:13:27;20.80;93.40
6664;DHT22;58749;48.022;10.922;2022-10-16T15:15:55;20.80;94.30
6664;DHT22;58749;48.022;10.922;2022-10-16T15:18:23;20.70;95.60
6664;DHT22;58749;48.022;10.922;2022-10-16T15:20:51;20.60;97.00
6664;DHT22;58749;48.022;10.922;2022-10-16T15:23:22;20.40;98.60
6664;DHT22;58749;48.022;10.922;2022-10-16T15:25:54;20.30;99.90
6664;DHT22;58749;48.022;10.922;2022-10-16T15:28:24;20.30;99.90
6664;DHT22;58749;48.022;10.922;2022-10-16T15:30:53;20.20;99.90
6664;DHT22;58749;48.022;10.922;2022-10-16T15:33:23;20.10;99.90
6664;DHT22;58749;48.022;10.922;2022-10-16T15:35:54;20.00;99.90
6664;DHT22;58749;48.022;10.922;2022-10-16T15:38:23;20.00;99.90
6664;DHT22;58749;48.022;10.922;2022-10-16T15:40:52;19.90;99.90
6664;DHT22;58749;48.022;10.922;2022-10-16T15:43:20;19.90;99.90
6664;DHT22;58749;48.022;10.922;2022-10-16T15:45:59;19.80;99.90
6664;DHT22;58749;48.022;10.922;2022-10-16T15:48:28;19.80;99.90
6664;DHT22;58749;48.022;10.922;2022-10-16T15:50:56;19.70;99.90
6664;DHT22;58749;48.022;10.922;2022-10-16T15:53:25;19.60;99.90
6664;DHT22;58749;48.022;10.922;2022-10-16T15:55:53;19.60;99.90
6664;DHT22;58749;48.022;10.922;2022-10-16T15:58:21;19.50;99.90
6664;DHT22;58749;48.022;10.922;2022-10-16T16:00:54;19.40;99.90
6664;DHT22;58749;48.022;10.922;2022-10-16T16:03:23;19.30;99.90
6664;DHT22;58749;48.022;10.922;2022-10-16T16:05:51;19.30;99.90
6664;DHT22;58749;48.022;10.922;2022-10-16T16:08:19;19.20;99.90
6664;DHT22;58749;48.022;10.922;2022-10-16T16:10:58;19.20;99.90